Current Conditions
Light Rain
Showers



Pressure
997.92 (hPa) - 29.47 (inHG)
Visibility

6.0 (km) - 3.7 (miles)
   Temperature
4  °C
Temperature
3  °C
Dewpoint
93  %
 Humidity
   Wind Speed
45  km/h
24  kts
28  mph
12.5  m/s
   Wind Direction
N
45°
E
90°
135°
S
180°
225°
W
270°
315°
 350°

Due North
   Airport Data
LTBA
Istanbul Atatürk Airport
Metar :LTBA 270650Z 35024KT 6000 SHRA FEW010 BKN030 BKN080 04/03 Q0998 NOSIG RMK RWY23 35018G28KT
Wed 27th January 09:50 am
   Raw Metar Info
Raw METAR is the most common format in the world for the transmission of observational weather data. It is highly standardized through the International Civil Aviation Organization (ICAO), which allows it to be understood throughout most of the world.
   API Info
Data Provided by
https://www.checkwx.com/weather/

Aviation Weather providing METAR, TAF, AIRMET, SIGMET and OUTLOOK Weather Reports
   © Info
CSS/SVG/PHP scripts were developed by weather34.com for use in the weather34 template © 2015-2021

Guide Info provided by Metar-Wikipedia